sensor_id;sensor_type;location;lat;lon;timestamp;temperature;humidity
72126;SHT31;59999;51.676;22.650;2023-12-04T00:01:19;-2.78;84.50
72126;SHT31;59999;51.676;22.650;2023-12-04T00:03:45;-2.75;84.65
72126;SHT31;59999;51.676;22.650;2023-12-04T00:06:11;-2.80;84.70
72126;SHT31;59999;51.676;22.650;2023-12-04T00:08:37;-2.80;84.74
72126;SHT31;59999;51.676;22.650;2023-12-04T00:11:07;-2.78;84.63
72126;SHT31;59999;51.676;22.650;2023-12-04T00:13:33;-2.82;84.89
72126;SHT31;59999;51.676;22.650;2023-12-04T00:15:59;-2.82;85.21
72126;SHT31;59999;51.676;22.650;2023-12-04T00:18:25;-2.82;85.21
72126;SHT31;59999;51.676;22.650;2023-12-04T00:20:51;-2.80;85.26
72126;SHT31;59999;51.676;22.650;2023-12-04T00:23:17;-2.85;85.37
72126;SHT31;59999;51.676;22.650;2023-12-04T00:25:43;-2.84;85.47
72126;SHT31;59999;51.676;22.650;2023-12-04T00:28:09;-2.87;85.79
72126;SHT31;59999;51.676;22.650;2023-12-04T00:30:35;-2.81;85.54
72126;SHT31;59999;51.676;22.650;2023-12-04T00:33:00;-2.87;85.77
72126;SHT31;59999;51.676;22.650;2023-12-04T00:35:26;-2.89;85.95
72126;SHT31;59999;51.676;22.650;2023-12-04T00:37:52;-2.84;85.93
72126;SHT31;59999;51.676;22.650;2023-12-04T00:40:18;-2.85;86.17
72126;SHT31;59999;51.676;22.650;2023-12-04T00:42:43;-2.82;86.17
72126;SHT31;59999;51.676;22.650;2023-12-04T00:45:09;-2.84;86.25
72126;SHT31;59999;51.676;22.650;2023-12-04T00:47:35;-2.88;86.14
72126;SHT31;59999;51.676;22.650;2023-12-04T00:50:02;-2.82;86.10
72126;SHT31;59999;51.676;22.650;2023-12-04T00:52:28;-2.87;86.22
72126;SHT31;59999;51.676;22.650;2023-12-04T00:54:54;-2.87;86.41
72126;SHT31;59999;51.676;22.650;2023-12-04T00:57:20;-2.89;86.57
72126;SHT31;59999;51.676;22.650;2023-12-04T00:59:46;-2.89;86.75
72126;SHT31;59999;51.676;22.650;2023-12-04T01:02:12;-2.84;86.51
72126;SHT31;59999;51.676;22.650;2023-12-04T01:04:41;-2.91;86.79
72126;SHT31;59999;51.676;22.650;2023-12-04T01:07:09;-2.89;86.77
72126;SHT31;59999;51.676;22.650;2023-12-04T01:09:35;-2.89;86.78
72126;SHT31;59999;51.676;22.650;2023-12-04T01:12:01;-2.87;86.93
72126;SHT31;59999;51.676;22.650;2023-12-04T01:14:28;-2.89;86.95
72126;SHT31;59999;51.676;22.650;2023-12-04T01:16:53;-2.91;87.05
72126;SHT31;59999;51.676;22.650;2023-12-04T01:19:19;-2.85;86.65
72126;SHT31;59999;51.676;22.650;2023-12-04T01:21:45;-2.88;86.94
72126;SHT31;59999;51.676;22.650;2023-12-04T01:24:11;-2.91;86.96
72126;SHT31;59999;51.676;22.650;2023-12-04T01:26:37;-2.93;87.20
72126;SHT31;59999;51.676;22.650;2023-12-04T01:29:03;-2.95;87.26
72126;SHT31;59999;51.676;22.650;2023-12-04T01:31:29;-2.98;87.55
72126;SHT31;59999;51.676;22.650;2023-12-04T01:33:54;-3.02;87.84
72126;SHT31;59999;51.676;22.650;2023-12-04T01:36:20;-2.96;87.57
72126;SHT31;59999;51.676;22.650;2023-12-04T01:38:46;-2.93;87.44
72126;SHT31;59999;51.676;22.650;2023-12-04T01:41:12;-2.93;87.55
72126;SHT31;59999;51.676;22.650;2023-12-04T01:43:37;-2.96;87.70
72126;SHT31;59999;51.676;22.650;2023-12-04T01:46:03;-2.95;87.57
72126;SHT31;59999;51.676;22.650;2023-12-04T01:48:30;-3.01;87.61
72126;SHT31;59999;51.676;22.650;2023-12-04T01:50:57;-2.95;87.71
72126;SHT31;59999;51.676;22.650;2023-12-04T01:53:24;-2.96;87.65
72126;SHT31;59999;51.676;22.650;2023-12-04T01:55:50;-2.93;87.53
72126;SHT31;59999;51.676;22.650;2023-12-04T01:58:16;-2.92;87.42
72126;SHT31;59999;51.676;22.650;2023-12-04T02:00:42;-2.91;87.44
72126;SHT31;59999;51.676;22.650;2023-12-04T02:03:09;-2.95;87.38
72126;SHT31;59999;51.676;22.650;2023-12-04T02:05:36;-2.93;87.56
72126;SHT31;59999;51.676;22.650;2023-12-04T02:08:02;-2.95;87.63
72126;SHT31;59999;51.676;22.650;2023-12-04T02:10:29;-2.95;87.71
72126;SHT31;59999;51.676;22.650;2023-12-04T02:12:55;-2.96;87.76
72126;SHT31;59999;51.676;22.650;2023-12-04T02:15:21;-2.98;87.65
72126;SHT31;59999;51.676;22.650;2023-12-04T02:17:47;-2.89;87.66
72126;SHT31;59999;51.676;22.650;2023-12-04T02:20:13;-2.92;87.62
72126;SHT31;59999;51.676;22.650;2023-12-04T02:22:41;-2.93;87.68
72126;SHT31;59999;51.676;22.650;2023-12-04T02:25:08;-2.93;87.75
72126;SHT31;59999;51.676;22.650;2023-12-04T02:27:44;-2.93;87.83
72126;SHT31;59999;51.676;22.650;2023-12-04T02:30:12;-2.95;87.89
72126;SHT31;59999;51.676;22.650;2023-12-04T02:32:47;-2.92;87.81
72126;SHT31;59999;51.676;22.650;2023-12-04T02:35:20;-2.93;88.05
72126;SHT31;59999;51.676;22.650;2023-12-04T02:37:47;-2.96;88.05
72126;SHT31;59999;51.676;22.650;2023-12-04T02:40:14;-2.96;88.25
72126;SHT31;59999;51.676;22.650;2023-12-04T02:42:40;-2.95;88.41
72126;SHT31;59999;51.676;22.650;2023-12-04T02:45:06;-2.92;88.10
72126;SHT31;59999;51.676;22.650;2023-12-04T02:47:32;-2.89;87.98
72126;SHT31;59999;51.676;22.650;2023-12-04T02:49:58;-2.88;88.15
72126;SHT31;59999;51.676;22.650;2023-12-04T02:52:24;-2.91;88.09
72126;SHT31;59999;51.676;22.650;2023-12-04T02:54:49;-2.88;88.25
72126;SHT31;59999;51.676;22.650;2023-12-04T02:57:15;-2.89;88.31
72126;SHT31;59999;51.676;22.650;2023-12-04T02:59:41;-2.87;88.17
72126;SHT31;59999;51.676;22.650;2023-12-04T03:02:07;-2.81;88.06
72126;SHT31;59999;51.676;22.650;2023-12-04T03:04:34;-2.81;87.87
72126;SHT31;59999;51.676;22.650;2023-12-04T03:07:00;-2.85;87.97
72126;SHT31;59999;51.676;22.650;2023-12-04T03:09:26;-2.84;88.20
72126;SHT31;59999;51.676;22.650;2023-12-04T03:11:51;-2.84;88.25
72126;SHT31;59999;51.676;22.650;2023-12-04T03:14:17;-2.84;88.23
72126;SHT31;59999;51.676;22.650;2023-12-04T03:16:43;-2.81;88.15
72126;SHT31;59999;51.676;22.650;2023-12-04T03:19:08;-2.81;88.16
72126;SHT31;59999;51.676;22.650;2023-12-04T03:21:34;-2.77;87.92
72126;SHT31;59999;51.676;22.650;2023-12-04T03:24:00;-2.81;88.08
72126;SHT31;59999;51.676;22.650;2023-12-04T03:26:26;-2.78;88.31
72126;SHT31;59999;51.676;22.650;2023-12-04T03:28:52;-2.78;88.34
72126;SHT31;59999;51.676;22.650;2023-12-04T03:31:18;-2.81;88.32
72126;SHT31;59999;51.676;22.650;2023-12-04T03:33:43;-2.78;88.53
72126;SHT31;59999;51.676;22.650;2023-12-04T03:36:09;-2.84;88.75
72126;SHT31;59999;51.676;22.650;2023-12-04T03:38:35;-2.78;88.90
72126;SHT31;59999;51.676;22.650;2023-12-04T03:41:01;-2.81;88.81
72126;SHT31;59999;51.676;22.650;2023-12-04T03:43:27;-2.81;88.84
72126;SHT31;59999;51.676;22.650;2023-12-04T03:45:53;-2.81;88.85
72126;SHT31;59999;51.676;22.650;2023-12-04T03:48:18;-2.81;88.96
72126;SHT31;59999;51.676;22.650;2023-12-04T03:50:46;-2.81;89.00
72126;SHT31;59999;51.676;22.650;2023-12-04T03:53:12;-2.80;89.00
72126;SHT31;59999;51.676;22.650;2023-12-04T03:55:37;-2.78;89.17
72126;SHT31;59999;51.676;22.650;2023-12-04T03:58:03;-2.77;89.25
72126;SHT31;59999;51.676;22.650;2023-12-04T04:00:29;-2.78;89.27
72126;SHT31;59999;51.676;22.650;2023-12-04T04:02:55;-2.81;89.51
72126;SHT31;59999;51.676;22.650;2023-12-04T04:05:22;-2.82;89.62
72126;SHT31;59999;51.676;22.650;2023-12-04T04:07:47;-2.81;89.59
72126;SHT31;59999;51.676;22.650;2023-12-04T04:10:13;-2.87;89.78
72126;SHT31;59999;51.676;22.650;2023-12-04T04:12:39;-2.85;90.06
72126;SHT31;59999;51.676;22.650;2023-12-04T04:15:05;-2.84;89.95
72126;SHT31;59999;51.676;22.650;2023-12-04T04:17:32;-2.84;90.13
72126;SHT31;59999;51.676;22.650;2023-12-04T04:19:59;-2.85;90.30
72126;SHT31;59999;51.676;22.650;2023-12-04T04:22:24;-2.85;90.38
72126;SHT31;59999;51.676;22.650;2023-12-04T04:24:51;-2.80;90.25
72126;SHT31;59999;51.676;22.650;2023-12-04T04:27:16;-2.82;90.11
72126;SHT31;59999;51.676;22.650;2023-12-04T04:29:42;-2.82;90.22
72126;SHT31;59999;51.676;22.650;2023-12-04T04:32:08;-2.75;90.20
72126;SHT31;59999;51.676;22.650;2023-12-04T04:34:34;-2.75;90.01
72126;SHT31;59999;51.676;22.650;2023-12-04T04:36:59;-2.77;90.19
72126;SHT31;59999;51.676;22.650;2023-12-04T04:39:25;-2.77;90.37
72126;SHT31;59999;51.676;22.650;2023-12-04T04:41:51;-2.75;90.38
72126;SHT31;59999;51.676;22.650;2023-12-04T04:44:17;-2.71;90.37
72126;SHT31;59999;51.676;22.650;2023-12-04T04:46:42;-2.68;90.32
72126;SHT31;59999;51.676;22.650;2023-12-04T04:49:08;-2.65;90.25
72126;SHT31;59999;51.676;22.650;2023-12-04T04:51:34;-2.67;90.22
72126;SHT31;59999;51.676;22.650;2023-12-04T04:54:01;-2.68;90.46
72126;SHT31;59999;51.676;22.650;2023-12-04T04:56:26;-2.64;90.17
72126;SHT31;59999;51.676;22.650;2023-12-04T04:58:53;-2.64;90.25
72126;SHT31;59999;51.676;22.650;2023-12-04T05:01:18;-2.58;90.16
72126;SHT31;59999;51.676;22.650;2023-12-04T05:03:44;-2.60;90.17
72126;SHT31;59999;51.676;22.650;2023-12-04T05:06:10;-2.58;90.06
72126;SHT31;59999;51.676;22.650;2023-12-04T05:08:36;-2.57;90.16
72126;SHT31;59999;51.676;22.650;2023-12-04T05:11:02;-2.56;90.00
72126;SHT31;59999;51.676;22.650;2023-12-04T05:13:27;-2.56;89.95
72126;SHT31;59999;51.676;22.650;2023-12-04T05:15:53;-2.50;89.79
72126;SHT31;59999;51.676;22.650;2023-12-04T05:18:19;-2.50;89.90
72126;SHT31;59999;51.676;22.650;2023-12-04T05:20:45;-2.47;89.90
72126;SHT31;59999;51.676;22.650;2023-12-04T05:23:10;-2.46;89.89
72126;SHT31;59999;51.676;22.650;2023-12-04T05:25:36;-2.47;90.00
72126;SHT31;59999;51.676;22.650;2023-12-04T05:28:03;-2.47;90.01
72126;SHT31;59999;51.676;22.650;2023-12-04T05:30:29;-2.44;90.17
72126;SHT31;59999;51.676;22.650;2023-12-04T05:32:54;-2.43;89.88
72126;SHT31;59999;51.676;22.650;2023-12-04T05:35:20;-2.41;89.83
72126;SHT31;59999;51.676;22.650;2023-12-04T05:37:46;-2.41;89.89
72126;SHT31;59999;51.676;22.650;2023-12-04T05:40:12;-2.40;89.77
72126;SHT31;59999;51.676;22.650;2023-12-04T05:42:38;-2.40;89.69
72126;SHT31;59999;51.676;22.650;2023-12-04T05:45:04;-2.40;89.62
72126;SHT31;59999;51.676;22.650;2023-12-04T05:47:30;-2.34;89.45
72126;SHT31;59999;51.676;22.650;2023-12-04T05:49:55;-2.30;89.27
72126;SHT31;59999;51.676;22.650;2023-12-04T05:52:22;-2.29;88.96
72126;SHT31;59999;51.676;22.650;2023-12-04T05:54:48;-2.29;88.93
72126;SHT31;59999;51.676;22.650;2023-12-04T05:57:14;-2.28;88.56
72126;SHT31;59999;51.676;22.650;2023-12-04T05:59:39;-2.29;88.72
72126;SHT31;59999;51.676;22.650;2023-12-04T06:02:05;-2.28;88.90
72126;SHT31;59999;51.676;22.650;2023-12-04T06:04:31;-2.25;88.62
72126;SHT31;59999;51.676;22.650;2023-12-04T06:06:57;-2.29;88.64
72126;SHT31;59999;51.676;22.650;2023-12-04T06:09:22;-2.25;88.63
72126;SHT31;59999;51.676;22.650;2023-12-04T06:11:48;-2.28;88.65
72126;SHT31;59999;51.676;22.650;2023-12-04T06:14:14;-2.28;88.66
72126;SHT31;59999;51.676;22.650;2023-12-04T06:16:40;-2.22;88.46
72126;SHT31;59999;51.676;22.650;2023-12-04T06:19:05;-2.26;88.50
72126;SHT31;59999;51.676;22.650;2023-12-04T06:21:32;-2.29;88.71
72126;SHT31;59999;51.676;22.650;2023-12-04T06:23:58;-2.30;88.65
72126;SHT31;59999;51.676;22.650;2023-12-04T06:26:24;-2.32;88.79
72126;SHT31;59999;51.676;22.650;2023-12-04T06:28:50;-2.23;88.66
72126;SHT31;59999;51.676;22.650;2023-12-04T06:31:16;-2.25;88.54
72126;SHT31;59999;51.676;22.650;2023-12-04T06:33:42;-2.26;88.53
72126;SHT31;59999;51.676;22.650;2023-12-04T06:36:09;-2.23;88.34
72126;SHT31;59999;51.676;22.650;2023-12-04T06:38:39;-2.28;88.50
72126;SHT31;59999;51.676;22.650;2023-12-04T06:41:06;-2.23;88.22
72126;SHT31;59999;51.676;22.650;2023-12-04T06:43:32;-2.20;88.28
72126;SHT31;59999;51.676;22.650;2023-12-04T06:45:59;-2.23;88.22
72126;SHT31;59999;51.676;22.650;2023-12-04T06:48:25;-2.25;88.20
72126;SHT31;59999;51.676;22.650;2023-12-04T06:50:51;-2.25;88.42
72126;SHT31;59999;51.676;22.650;2023-12-04T06:53:16;-2.22;88.31
72126;SHT31;59999;51.676;22.650;2023-12-04T06:55:42;-2.23;88.20
72126;SHT31;59999;51.676;22.650;2023-12-04T06:58:08;-2.20;88.13
72126;SHT31;59999;51.676;22.650;2023-12-04T07:00:34;-2.18;88.30
72126;SHT31;59999;51.676;22.650;2023-12-04T07:03:00;-2.14;88.10
72126;SHT31;59999;51.676;22.650;2023-12-04T07:05:26;-2.14;88.14
72126;SHT31;59999;51.676;22.650;2023-12-04T07:07:51;-2.14;87.70
72126;SHT31;59999;51.676;22.650;2023-12-04T07:10:17;-2.03;87.21
72126;SHT31;59999;51.676;22.650;2023-12-04T07:12:44;-2.07;87.21
72126;SHT31;59999;51.676;22.650;2023-12-04T07:15:11;-2.05;87.08
72126;SHT31;59999;51.676;22.650;2023-12-04T07:17:39;-2.03;87.15
72126;SHT31;59999;51.676;22.650;2023-12-04T07:20:05;-2.02;87.19
72126;SHT31;59999;51.676;22.650;2023-12-04T07:22:35;-2.01;87.15
72126;SHT31;59999;51.676;22.650;2023-12-04T07:25:00;-1.99;86.98
72126;SHT31;59999;51.676;22.650;2023-12-04T07:27:27;-1.98;87.01
72126;SHT31;59999;51.676;22.650;2023-12-04T07:29:53;-1.92;86.80
72126;SHT31;59999;51.676;22.650;2023-12-04T07:32:19;-1.93;86.74
72126;SHT31;59999;51.676;22.650;2023-12-04T07:34:45;-1.92;86.58
72126;SHT31;59999;51.676;22.650;2023-12-04T07:37:11;-1.95;86.85
72126;SHT31;59999;51.676;22.650;2023-12-04T07:39:37;-1.96;87.03
72126;SHT31;59999;51.676;22.650;2023-12-04T07:42:03;-1.98;87.03
72126;SHT31;59999;51.676;22.650;2023-12-04T07:44:29;-1.95;87.09
72126;SHT31;59999;51.676;22.650;2023-12-04T07:46:55;-1.99;87.07
72126;SHT31;59999;51.676;22.650;2023-12-04T07:49:21;-1.99;87.41
72126;SHT31;59999;51.676;22.650;2023-12-04T07:51:47;-1.93;87.13
72126;SHT31;59999;51.676;22.650;2023-12-04T07:54:13;-1.93;86.94
72126;SHT31;59999;51.676;22.650;2023-12-04T07:56:38;-1.93;87.04
72126;SHT31;59999;51.676;22.650;2023-12-04T07:59:04;-1.93;86.60
72126;SHT31;59999;51.676;22.650;2023-12-04T08:01:30;-1.92;86.16
72126;SHT31;59999;51.676;22.650;2023-12-04T08:03:56;-1.89;86.39
72126;SHT31;59999;51.676;22.650;2023-12-04T08:06:22;-1.85;86.20
72126;SHT31;59999;51.676;22.650;2023-12-04T08:08:49;-1.85;86.09
72126;SHT31;59999;51.676;22.650;2023-12-04T08:11:14;-1.88;85.80
72126;SHT31;59999;51.676;22.650;2023-12-04T08:13:40;-1.86;85.38
72126;SHT31;59999;51.676;22.650;2023-12-04T08:16:15;-1.81;85.16
72126;SHT31;59999;51.676;22.650;2023-12-04T08:18:41;-1.81;85.13
72126;SHT31;59999;51.676;22.650;2023-12-04T08:21:07;-1.79;85.44
72126;SHT31;59999;51.676;22.650;2023-12-04T08:23:33;-1.78;85.31
72126;SHT31;59999;51.676;22.650;2023-12-04T08:25:59;-1.79;85.51
72126;SHT31;59999;51.676;22.650;2023-12-04T08:28:25;-1.75;85.24
72126;SHT31;59999;51.676;22.650;2023-12-04T08:30:51;-1.72;84.82
72126;SHT31;59999;51.676;22.650;2023-12-04T08:33:16;-1.72;84.91
72126;SHT31;59999;51.676;22.650;2023-12-04T08:35:46;-1.72;84.88
72126;SHT31;59999;51.676;22.650;2023-12-04T08:38:13;-1.71;85.14
72126;SHT31;59999;51.676;22.650;2023-12-04T08:40:38;-1.74;84.96
72126;SHT31;59999;51.676;22.650;2023-12-04T08:43:05;-1.64;84.29
72126;SHT31;59999;51.676;22.650;2023-12-04T08:45:31;-1.64;84.43
72126;SHT31;59999;51.676;22.650;2023-12-04T08:47:57;-1.64;84.49
72126;SHT31;59999;51.676;22.650;2023-12-04T08:50:22;-1.67;84.68
72126;SHT31;59999;51.676;22.650;2023-12-04T08:52:51;-1.70;84.95
72126;SHT31;59999;51.676;22.650;2023-12-04T08:55:17;-1.61;84.40
72126;SHT31;59999;51.676;22.650;2023-12-04T08:57:43;-1.65;84.10
72126;SHT31;59999;51.676;22.650;2023-12-04T09:00:09;-1.63;83.72
72126;SHT31;59999;51.676;22.650;2023-12-04T09:02:35;-1.67;84.44
72126;SHT31;59999;51.676;22.650;2023-12-04T09:05:01;-1.65;84.42
72126;SHT31;59999;51.676;22.650;2023-12-04T09:07:27;-1.61;84.51
72126;SHT31;59999;51.676;22.650;2023-12-04T09:09:53;-1.67;84.13
72126;SHT31;59999;51.676;22.650;2023-12-04T09:12:19;-1.67;84.39
72126;SHT31;59999;51.676;22.650;2023-12-04T09:14:45;-1.61;83.88
72126;SHT31;59999;51.676;22.650;2023-12-04T09:17:10;-1.53;83.59
72126;SHT31;59999;51.676;22.650;2023-12-04T09:19:36;-1.46;83.64
72126;SHT31;59999;51.676;22.650;2023-12-04T09:22:02;-1.44;83.67
72126;SHT31;59999;51.676;22.650;2023-12-04T09:24:28;-1.42;83.22
72126;SHT31;59999;51.676;22.650;2023-12-04T09:26:54;-1.46;83.67
72126;SHT31;59999;51.676;22.650;2023-12-04T09:29:21;-1.48;83.47
72126;SHT31;59999;51.676;22.650;2023-12-04T09:31:51;-1.48;83.00
72126;SHT31;59999;51.676;22.650;2023-12-04T09:34:17;-1.48;83.63
72126;SHT31;59999;51.676;22.650;2023-12-04T09:36:43;-1.43;83.28
72126;SHT31;59999;51.676;22.650;2023-12-04T09:39:09;-1.34;83.56
72126;SHT31;59999;51.676;22.650;2023-12-04T09:41:37;-1.27;82.74
72126;SHT31;59999;51.676;22.650;2023-12-04T09:44:03;-1.24;82.13
72126;SHT31;59999;51.676;22.650;2023-12-04T09:46:30;-1.29;82.28
72126;SHT31;59999;51.676;22.650;2023-12-04T09:48:56;-1.26;82.37
72126;SHT31;59999;51.676;22.650;2023-12-04T09:51:23;-1.26;82.44
72126;SHT31;59999;51.676;22.650;2023-12-04T09:53:49;-1.24;82.50
72126;SHT31;59999;51.676;22.650;2023-12-04T09:56:15;-1.20;82.10
72126;SHT31;59999;51.676;22.650;2023-12-04T09:58:41;-1.23;82.08
72126;SHT31;59999;51.676;22.650;2023-12-04T10:01:09;-1.29;81.93
72126;SHT31;59999;51.676;22.650;2023-12-04T10:03:36;-1.27;82.22
72126;SHT31;59999;51.676;22.650;2023-12-04T10:06:03;-1.30;82.73
72126;SHT31;59999;51.676;22.650;2023-12-04T10:08:30;-1.33;81.98
72126;SHT31;59999;51.676;22.650;2023-12-04T10:10:55;-1.36;82.41
72126;SHT31;59999;51.676;22.650;2023-12-04T10:13:21;-1.37;82.39
72126;SHT31;59999;51.676;22.650;2023-12-04T10:15:50;-1.37;82.65
72126;SHT31;59999;51.676;22.650;2023-12-04T10:18:32;-1.39;83.14
72126;SHT31;59999;51.676;22.650;2023-12-04T10:20:58;-1.37;82.81
72126;SHT31;59999;51.676;22.650;2023-12-04T10:23:37;-1.37;82.47
72126;SHT31;59999;51.676;22.650;2023-12-04T10:26:04;-1.36;82.17
72126;SHT31;59999;51.676;22.650;2023-12-04T10:28:29;-1.37;82.80
72126;SHT31;59999;51.676;22.650;2023-12-04T10:30:56;-1.39;82.59
72126;SHT31;59999;51.676;22.650;2023-12-04T10:33:24;-1.32;82.37
72126;SHT31;59999;51.676;22.650;2023-12-04T10:35:51;-1.39;82.14
72126;SHT31;59999;51.676;22.650;2023-12-04T10:38:18;-1.34;82.04
72126;SHT31;59999;51.676;22.650;2023-12-04T10:40:44;-1.36;82.03
72126;SHT31;59999;51.676;22.650;2023-12-04T10:43:20;-1.44;82.33
72126;SHT31;59999;51.676;22.650;2023-12-04T10:45:48;-1.48;82.59
72126;SHT31;59999;51.676;22.650;2023-12-04T10:48:15;-1.42;82.57
72126;SHT31;59999;51.676;22.650;2023-12-04T10:50:46;-1.40;82.35
72126;SHT31;59999;51.676;22.650;2023-12-04T10:53:16;-1.36;82.65
72126;SHT31;59999;51.676;22.650;2023-12-04T10:55:43;-1.39;82.33
72126;SHT31;59999;51.676;22.650;2023-12-04T10:58:14;-1.37;82.23
72126;SHT31;59999;51.676;22.650;2023-12-04T11:00:45;-1.36;81.72
72126;SHT31;59999;51.676;22.650;2023-12-04T11:03:34;-1.36;82.31
72126;SHT31;59999;51.676;22.650;2023-12-04T11:06:01;-1.40;82.18
72126;SHT31;59999;51.676;22.650;2023-12-04T11:08:35;-1.40;82.29
72126;SHT31;59999;51.676;22.650;2023-12-04T11:11:03;-1.40;82.46
72126;SHT31;59999;51.676;22.650;2023-12-04T11:13:34;-1.39;82.70
72126;SHT31;59999;51.676;22.650;2023-12-04T11:16:02;-1.39;83.00
72126;SHT31;59999;51.676;22.650;2023-12-04T11:18:31;-1.33;82.87
72126;SHT31;59999;51.676;22.650;2023-12-04T11:21:07;-1.33;82.22
72126;SHT31;59999;51.676;22.650;2023-12-04T11:23:34;-1.37;82.55
72126;SHT31;59999;51.676;22.650;2023-12-04T11:26:01;-1.34;82.76
72126;SHT31;59999;51.676;22.650;2023-12-04T11:28:30;-1.30;83.09
72126;SHT31;59999;51.676;22.650;2023-12-04T11:30:56;-1.32;82.42
72126;SHT31;59999;51.676;22.650;2023-12-04T11:33:23;-1.29;82.16
72126;SHT31;59999;51.676;22.650;2023-12-04T11:35:49;-1.34;82.18
72126;SHT31;59999;51.676;22.650;2023-12-04T11:38:16;-1.33;82.48
72126;SHT31;59999;51.676;22.650;2023-12-04T11:40:43;-1.29;82.22
72126;SHT31;59999;51.676;22.650;2023-12-04T11:43:25;-1.26;82.09
72126;SHT31;59999;51.676;22.650;2023-12-04T11:45:52;-1.24;82.60
72126;SHT31;59999;51.676;22.650;2023-12-04T11:48:22;-1.29;82.11
72126;SHT31;59999;51.676;22.650;2023-12-04T11:50:49;-1.30;82.48
72126;SHT31;59999;51.676;22.650;2023-12-04T11:53:16;-1.30;82.62
72126;SHT31;59999;51.676;22.650;2023-12-04T11:55:42;-1.30;82.32
72126;SHT31;59999;51.676;22.650;2023-12-04T11:58:11;-1.39;82.48
72126;SHT31;59999;51.676;22.650;2023-12-04T12:00:38;-1.44;82.69
72126;SHT31;59999;51.676;22.650;2023-12-04T12:03:06;-1.44;82.89
72126;SHT31;59999;51.676;22.650;2023-12-04T12:05:33;-1.42;82.85
72126;SHT31;59999;51.676;22.650;2023-12-04T12:08:01;-1.42;82.76
72126;SHT31;59999;51.676;22.650;2023-12-04T12:10:28;-1.44;83.01
72126;SHT31;59999;51.676;22.650;2023-12-04T12:12:54;-1.44;83.10
72126;SHT31;59999;51.676;22.650;2023-12-04T12:15:20;-1.47;83.11
72126;SHT31;59999;51.676;22.650;2023-12-04T12:17:46;-1.47;83.58
72126;SHT31;59999;51.676;22.650;2023-12-04T12:20:15;-1.47;83.37
72126;SHT31;59999;51.676;22.650;2023-12-04T12:22:41;-1.50;83.53
72126;SHT31;59999;51.676;22.650;2023-12-04T12:25:12;-1.48;83.63
72126;SHT31;59999;51.676;22.650;2023-12-04T12:27:39;-1.51;83.32
72126;SHT31;59999;51.676;22.650;2023-12-04T12:30:06;-1.43;83.16
72126;SHT31;59999;51.676;22.650;2023-12-04T12:32:33;-1.47;83.32
72126;SHT31;59999;51.676;22.650;2023-12-04T12:34:59;-1.48;83.52
72126;SHT31;59999;51.676;22.650;2023-12-04T12:37:24;-1.44;83.12
72126;SHT31;59999;51.676;22.650;2023-12-04T12:39:51;-1.43;83.31
72126;SHT31;59999;51.676;22.650;2023-12-04T12:42:28;-1.36;83.43
72126;SHT31;59999;51.676;22.650;2023-12-04T12:44:55;-1.34;82.94
72126;SHT31;59999;51.676;22.650;2023-12-04T12:47:22;-1.30;82.55
72126;SHT31;59999;51.676;22.650;2023-12-04T12:49:48;-1.36;82.42
72126;SHT31;59999;51.676;22.650;2023-12-04T12:52:14;-1.39;82.86
72126;SHT31;59999;51.676;22.650;2023-12-04T12:54:41;-1.37;82.81
72126;SHT31;59999;51.676;22.650;2023-12-04T12:57:07;-1.39;82.97
72126;SHT31;59999;51.676;22.650;2023-12-04T12:59:34;-1.42;82.96
72126;SHT31;59999;51.676;22.650;2023-12-04T13:02:00;-1.40;83.08
72126;SHT31;59999;51.676;22.650;2023-12-04T13:04:26;-1.43;82.87
72126;SHT31;59999;51.676;22.650;2023-12-04T13:06:59;-1.44;83.19
72126;SHT31;59999;51.676;22.650;2023-12-04T13:09:24;-1.40;82.78
72126;SHT31;59999;51.676;22.650;2023-12-04T13:11:50;-1.43;82.88
72126;SHT31;59999;51.676;22.650;2023-12-04T13:14:17;-1.48;83.13
72126;SHT31;59999;51.676;22.650;2023-12-04T13:16:43;-1.51;83.20
72126;SHT31;59999;51.676;22.650;2023-12-04T13:19:09;-1.51;83.24
72126;SHT31;59999;51.676;22.650;2023-12-04T13:21:34;-1.53;83.06
72126;SHT31;59999;51.676;22.650;2023-12-04T13:24:00;-1.54;83.21
72126;SHT31;59999;51.676;22.650;2023-12-04T13:26:26;-1.55;83.38
72126;SHT31;59999;51.676;22.650;2023-12-04T13:28:52;-1.57;83.42
72126;SHT31;59999;51.676;22.650;2023-12-04T13:31:18;-1.55;83.49
72126;SHT31;59999;51.676;22.650;2023-12-04T13:33:46;-1.57;83.16
72126;SHT31;59999;51.676;22.650;2023-12-04T13:36:12;-1.58;82.88
72126;SHT31;59999;51.676;22.650;2023-12-04T13:38:38;-1.60;82.84
72126;SHT31;59999;51.676;22.650;2023-12-04T13:41:04;-1.61;82.73
72126;SHT31;59999;51.676;22.650;2023-12-04T13:43:59;-1.61;83.01
72126;SHT31;59999;51.676;22.650;2023-12-04T13:46:26;-1.68;83.02
72126;SHT31;59999;51.676;22.650;2023-12-04T13:48:58;-1.71;83.03
72126;SHT31;59999;51.676;22.650;2023-12-04T13:51:24;-1.75;83.03
72126;SHT31;59999;51.676;22.650;2023-12-04T13:53:51;-1.79;83.24
72126;SHT31;59999;51.676;22.650;2023-12-04T13:56:22;-1.84;83.33
72126;SHT31;59999;51.676;22.650;2023-12-04T13:59:16;-1.86;83.31
72126;SHT31;59999;51.676;22.650;2023-12-04T14:01:46;-1.82;83.47
72126;SHT31;59999;51.676;22.650;2023-12-04T14:04:12;-1.91;83.54
72126;SHT31;59999;51.676;22.650;2023-12-04T14:06:38;-1.89;83.63
72126;SHT31;59999;51.676;22.650;2023-12-04T14:09:04;-1.91;83.64
72126;SHT31;59999;51.676;22.650;2023-12-04T14:11:43;-1.93;83.59
72126;SHT31;59999;51.676;22.650;2023-12-04T14:14:12;-1.96;83.43
72126;SHT31;59999;51.676;22.650;2023-12-04T14:16:41;-2.02;83.68
72126;SHT31;59999;51.676;22.650;2023-12-04T14:19:08;-2.06;84.03
72126;SHT31;59999;51.676;22.650;2023-12-04T14:21:34;-2.13;84.05
72126;SHT31;59999;51.676;22.650;2023-12-04T14:24:00;-2.18;84.28
72126;SHT31;59999;51.676;22.650;2023-12-04T14:26:26;-2.16;84.32
72126;SHT31;59999;51.676;22.650;2023-12-04T14:28:53;-2.18;84.17
72126;SHT31;59999;51.676;22.650;2023-12-04T14:31:19;-2.22;84.24
72126;SHT31;59999;51.676;22.650;2023-12-04T14:33:45;-2.25;84.30
72126;SHT31;59999;51.676;22.650;2023-12-04T14:36:11;-2.30;84.11
72126;SHT31;59999;51.676;22.650;2023-12-04T14:38:39;-2.32;83.79
72126;SHT31;59999;51.676;22.650;2023-12-04T14:41:06;-2.37;83.71
72126;SHT31;59999;51.676;22.650;2023-12-04T14:43:32;-2.47;83.81
72126;SHT31;59999;51.676;22.650;2023-12-04T14:45:58;-2.51;83.78
72126;SHT31;59999;51.676;22.650;2023-12-04T14:48:24;-2.61;83.41
72126;SHT31;59999;51.676;22.650;2023-12-04T14:50:50;-2.72;83.93
72126;SHT31;59999;51.676;22.650;2023-12-04T14:53:15;-2.89;83.85
72126;SHT31;59999;51.676;22.650;2023-12-04T14:55:49;-3.13;84.63
72126;SHT31;59999;51.676;22.650;2023-12-04T14:58:33;-3.28;85.44
72126;SHT31;59999;51.676;22.650;2023-12-04T15:01:06;-3.32;85.44
72126;SHT31;59999;51.676;22.650;2023-12-04T15:04:03;-3.38;86.00
72126;SHT31;59999;51.676;22.650;2023-12-04T15:06:48;-3.49;85.40
72126;SHT31;59999;51.676;22.650;2023-12-04T15:09:33;-3.64;85.43
72126;SHT31;59999;51.676;22.650;2023-12-04T15:12:11;-3.81;85.03
72126;SHT31;59999;51.676;22.650;2023-12-04T15:14:36;-3.99;85.72